Time;durP1;ratioP1;P1;durP2;ratioP2;P2;SDS_P1;SDS_P2;PMS_P1;PMS_P2;Temp;Humidity;BMP_temperature;BMP_pressure;BME280_temperature;BME280_humidity;BME280_pressure;Samples;Min_cycle;Max_cycle;Signal;HPM_P1;HPM_P2
2023/01/18 00:01:42;;;;;;;9.67;5.00;;;2.40;99.90;;;;;;4979087;29;20456;-41
2023/01/18 00:04:09;;;;;;;5.80;5.00;;;2.30;99.90;;;;;;4979435;29;20486;-42
2023/01/18 00:06:35;;;;;;;8.20;6.20;;;2.30;99.90;;;;;;4979168;29;20459;-46
2023/01/18 00:09:02;;;;;;;7.80;4.47;;;2.30;99.90;;;;;;4979642;29;20432;-45
2023/01/18 00:11:31;;;;;;;11.27;6.70;;;2.20;99.90;;;;;;4979389;29;20495;-41
2023/01/18 00:13:57;;;;;;;8.50;6.10;;;2.20;99.90;;;;;;4979515;29;20519;-44
2023/01/18 00:16:25;;;;;;;11.70;5.67;;;2.20;99.90;;;;;;4979189;29;20452;-40
2023/01/18 00:18:53;;;;;;;9.10;5.30;;;2.20;99.90;;;;;;4979563;29;20436;-43
2023/01/18 00:21:20;;;;;;;11.77;6.00;;;2.20;99.90;;;;;;4942783;28;1075875;-45
2023/01/18 00:23:47;;;;;;;7.00;6.30;;;2.10;99.90;;;;;;4979560;29;20282;-41
2023/01/18 00:26:14;;;;;;;8.53;4.87;;;2.20;99.90;;;;;;4980029;29;20486;-40
2023/01/18 00:28:42;;;;;;;7.47;5.40;;;2.20;99.90;;;;;;4980127;29;20480;-43
2023/01/18 00:31:11;;;;;;;14.10;6.10;;;2.20;99.90;;;;;;4979758;28;20448;-42
2023/01/18 00:33:38;;;;;;;8.17;5.90;;;2.30;99.90;;;;;;4980061;29;20504;-41
2023/01/18 00:36:05;;;;;;;8.97;6.60;;;2.30;99.90;;;;;;4970085;29;20523;-41
2023/01/18 00:38:32;;;;;;;7.97;5.97;;;2.30;99.90;;;;;;4979285;29;20443;-40
2023/01/18 00:40:59;;;;;;;13.10;8.07;;;2.30;99.90;;;;;;4979519;29;20440;-41
2023/01/18 00:43:40;;;;;;;10.47;7.03;;;2.40;99.90;;;;;;4979560;29;20439;-43
2023/01/18 00:46:10;;;;;;;12.20;6.30;;;2.40;99.90;;;;;;4969299;29;20467;-42
2023/01/18 00:48:38;;;;;;;9.67;6.67;;;2.40;99.90;;;;;;4979510;28;20451;-43
2023/01/18 00:51:06;;;;;;;12.33;7.70;;;2.40;99.90;;;;;;4979089;29;20456;-42
2023/01/18 00:53:33;;;;;;;15.93;6.87;;;2.50;99.90;;;;;;4979600;29;20459;-43
2023/01/18 00:55:59;;;;;;;15.70;6.87;;;2.50;99.90;;;;;;4978959;29;20479;-39
2023/01/18 00:58:27;;;;;;;14.33;5.73;;;2.50;99.90;;;;;;4978865;29;20444;-39
2023/01/18 01:00:54;;;;;;;8.67;5.50;;;2.50;99.90;;;;;;4979489;29;20472;-43
2023/01/18 01:03:22;;;;;;;9.57;7.30;;;2.50;99.90;;;;;;4979295;29;20480;-41
2023/01/18 01:08:34;;;;;;;14.40;7.03;;;2.50;99.90;;;;;;4978981;28;20419;-42
2023/01/18 01:11:06;;;;;;;8.17;6.07;;;2.50;99.90;;;;;;4979349;29;20500;-45
2023/01/18 01:27:18;;;;;;;12.90;7.07;;;2.60;99.90;;;;;;4979734;29;20418;-40
2023/01/18 01:29:44;;;;;;;13.67;5.77;;;2.60;99.90;;;;;;4979185;29;20478;-46
2023/01/18 01:32:12;;;;;;;20.00;7.17;;;2.60;99.90;;;;;;4978998;29;20471;-41
2023/01/18 01:34:40;;;;;;;6.27;5.63;;;2.60;99.90;;;;;;4978975;29;20483;-43
2023/01/18 01:37:07;;;;;;;10.13;6.10;;;2.60;99.90;;;;;;4979190;28;20420;-43
2023/01/18 01:39:33;;;;;;;15.53;9.13;;;2.60;99.90;;;;;;4979187;29;20440;-43
2023/01/18 01:42:00;;;;;;;7.33;6.03;;;2.60;99.90;;;;;;4979177;29;20432;-42
2023/01/18 01:44:50;;;;;;;9.97;6.17;;;2.60;99.90;;;;;;4979208;29;20432;-42
2023/01/18 01:47:29;;;;;;;9.90;6.43;;;2.70;99.90;;;;;;4979438;29;20468;-38
2023/01/18 01:50:01;;;;;;;17.17;7.07;;;2.70;99.90;;;;;;4979162;29;20427;-41
2023/01/18 01:52:33;;;;;;;10.03;7.03;;;2.60;99.90;;;;;;4978963;28;20511;-39
2023/01/18 01:55:04;;;;;;;10.30;5.90;;;2.60;99.90;;;;;;4979059;29;20412;-43
2023/01/18 01:57:34;;;;;;;9.97;6.83;;;2.50;99.90;;;;;;4978493;29;20471;-43
2023/01/18 02:00:04;;;;;;;19.43;6.87;;;2.50;99.90;;;;;;4978702;29;20455;-45
2023/01/18 02:02:32;;;;;;;7.53;6.03;;;2.50;99.90;;;;;;4978340;29;20476;-43
2023/01/18 02:05:03;;;;;;;9.00;6.10;;;2.60;99.90;;;;;;4978625;29;20487;-41
2023/01/18 02:07:29;;;;;;;12.10;5.33;;;2.60;99.90;;;;;;4978380;29;20451;-42
2023/01/18 02:09:58;;;;;;;10.13;6.00;;;2.60;99.90;;;;;;4978434;29;20505;-44
2023/01/18 02:12:26;;;;;;;7.00;4.77;;;2.60;99.90;;;;;;4978949;29;20494;-41
2023/01/18 02:14:54;;;;;;;6.30;4.87;;;2.50;99.90;;;;;;4978607;29;20552;-42
2023/01/18 02:17:34;;;;;;;5.50;4.30;;;2.40;99.90;;;;;;4978496;29;20479;-44
2023/01/18 02:20:31;;;;;;;5.37;4.33;;;2.40;99.90;;;;;;4979345;28;20499;-39
2023/01/18 02:23:27;;;;;;;7.53;5.20;;;2.40;99.90;;;;;;4981741;29;20420;-42
2023/01/18 02:26:17;;;;;;;8.77;6.27;;;2.40;99.90;;;;;;4981273;29;20495;-41
2023/01/18 02:28:54;;;;;;;8.10;5.57;;;2.40;99.90;;;;;;4978527;28;20444;-42
2023/01/18 02:31:26;;;;;;;9.40;6.03;;;2.30;99.90;;;;;;4982557;29;20462;-41
2023/01/18 02:34:01;;;;;;;10.83;4.93;;;2.30;99.90;;;;;;4982249;29;20419;-42
2023/01/18 02:36:36;;;;;;;14.27;6.67;;;2.30;99.90;;;;;;4982927;28;20517;-39
2023/01/18 02:39:09;;;;;;;8.30;4.90;;;2.30;99.90;;;;;;4982556;29;20435;-43
2023/01/18 02:47:18;;;;;;;6.60;4.30;;;2.40;99.90;;;;;;4981956;29;20466;-41
2023/01/18 02:49:44;;;;;;;8.80;4.97;;;2.40;99.90;;;;;;4982065;29;20458;-43
2023/01/18 02:52:38;;;;;;;9.93;4.67;;;2.40;99.90;;;;;;4974774;29;20487;-41
2023/01/18 02:55:07;;;;;;;8.20;5.17;;;2.40;99.90;;;;;;4973054;29;20438;-39
2023/01/18 02:57:34;;;;;;;11.30;4.23;;;2.40;99.90;;;;;;4981290;29;20468;-40
2023/01/18 03:00:04;;;;;;;9.47;5.57;;;2.40;99.90;;;;;;4981107;29;20462;-43
2023/01/18 03:02:31;;;;;;;8.47;5.10;;;2.40;99.90;;;;;;4973298;29;20870;-43
2023/01/18 03:04:58;;;;;;;7.17;5.77;;;2.50;99.90;;;;;;4980801;29;20496;-43
2023/01/18 03:07:28;;;;;;;6.20;4.57;;;2.50;99.90;;;;;;4981540;29;20471;-41
2023/01/18 03:09:58;;;;;;;6.67;3.87;;;2.50;99.90;;;;;;4981120;28;20468;-39
2023/01/18 03:12:44;;;;;;;8.00;5.60;;;2.50;99.90;;;;;;4980718;29;20531;-48
2023/01/18 03:15:19;;;;;;;12.60;6.60;;;2.60;99.90;;;;;;4980650;29;20471;-40
2023/01/18 03:17:53;;;;;;;6.90;4.30;;;2.60;99.90;;;;;;4981022;29;20442;-42
2023/01/18 03:20:24;;;;;;;6.77;4.47;;;2.60;99.90;;;;;;4978309;29;20484;-40
2023/01/18 03:25:52;;;;;;;6.07;4.37;;;2.50;99.90;;;;;;4946512;29;20484;-41
2023/01/18 03:34:02;;;;;;;6.60;4.70;;;2.50;99.90;;;;;;4980303;29;20466;-40
2023/01/18 03:36:33;;;;;;;5.73;3.03;;;2.60;99.90;;;;;;4980314;29;20432;-46
2023/01/18 03:39:03;;;;;;;5.57;4.00;;;2.60;99.90;;;;;;4980673;29;20465;-43
2023/01/18 03:41:38;;;;;;;5.27;4.40;;;2.60;99.90;;;;;;4980442;29;20428;-47
2023/01/18 03:44:10;;;;;;;8.57;3.60;;;2.60;99.90;;;;;;4979997;29;20499;-40
2023/01/18 03:46:42;;;;;;;6.60;4.43;;;2.60;99.90;;;;;;4980449;29;20446;-43
2023/01/18 03:49:10;;;;;;;4.93;3.10;;;2.60;99.90;;;;;;4979934;29;20476;-48
2023/01/18 03:51:49;;;;;;;5.77;3.87;;;2.70;99.90;;;;;;4980565;29;20443;-40
2023/01/18 03:54:23;;;;;;;7.60;4.10;;;2.70;99.90;;;;;;4980154;28;20496;-40
2023/01/18 03:56:54;;;;;;;7.50;4.20;;;2.70;99.90;;;;;;4980152;29;20444;-43
2023/01/18 03:59:21;;;;;;;9.83;5.87;;;2.60;99.90;;;;;;4979896;29;20450;-41
2023/01/18 04:01:49;;;;;;;14.87;4.70;;;2.60;99.90;;;;;;4980112;29;20420;-42
2023/01/18 04:04:16;;;;;;;6.73;4.83;;;2.50;99.90;;;;;;4978104;29;20440;-41
2023/01/18 04:06:43;;;;;;;7.57;4.90;;;2.50;99.90;;;;;;4972513;29;20496;-43
2023/01/18 04:09:11;;;;;;;4.33;3.90;;;2.50;99.90;;;;;;4979781;29;20460;-39
2023/01/18 04:11:38;;;;;;;5.73;4.30;;;2.50;99.90;;;;;;4980118;29;20471;-45
2023/01/18 04:14:05;;;;;;;7.70;4.30;;;2.50;99.90;;;;;;4975040;29;20552;-41
2023/01/18 04:16:32;;;;;;;7.03;4.03;;;2.50;99.90;;;;;;4973616;29;20523;-39
2023/01/18 04:19:00;;;;;;;8.57;4.33;;;2.60;99.90;;;;;;4968989;29;20428;-44
2023/01/18 04:21:29;;;;;;;8.80;3.67;;;2.60;99.90;;;;;;4978547;29;20494;-41
2023/01/18 04:23:56;;;;;;;5.70;4.00;;;2.70;99.90;;;;;;4980467;29;20440;-40
2023/01/18 04:26:23;;;;;;;5.40;4.13;;;2.70;99.90;;;;;;4979085;29;20448;-40
2023/01/18 04:28:50;;;;;;;4.23;3.60;;;2.70;99.90;;;;;;4979708;29;20469;-41
2023/01/18 04:31:17;;;;;;;7.47;4.03;;;2.70;99.90;;;;;;4979651;29;20459;-45
2023/01/18 04:33:44;;;;;;;7.40;3.53;;;2.70;99.90;;;;;;4978925;29;20522;-40
2023/01/18 04:36:12;;;;;;;4.00;3.60;;;2.70;99.90;;;;;;4979809;29;20491;-45
2023/01/18 04:38:39;;;;;;;4.30;3.03;;;2.80;99.90;;;;;;4979602;29;20449;-42
2023/01/18 04:41:06;;;;;;;4.80;3.73;;;2.70;99.90;;;;;;4979406;29;20428;-41
2023/01/18 04:43:33;;;;;;;6.50;4.63;;;2.70;99.90;;;;;;4978967;28;20452;-43
2023/01/18 04:46:00;;;;;;;8.27;3.53;;;2.70;99.90;;;;;;4979681;29;20454;-41
2023/01/18 04:48:27;;;;;;;8.50;4.40;;;2.80;99.90;;;;;;4979106;29;20451;-43
2023/01/18 04:50:54;;;;;;;4.20;3.10;;;2.80;99.90;;;;;;4969603;29;20531;-39
2023/01/18 04:53:22;;;;;;;4.13;3.77;;;2.80;99.90;;;;;;4978873;29;20514;-44
2023/01/18 04:55:49;;;;;;;5.87;3.73;;;2.80;99.90;;;;;;4978994;29;20463;-44
2023/01/18 04:58:15;;;;;;;8.83;4.40;;;2.80;99.90;;;;;;4979245;28;20451;-40
2023/01/18 05:00:43;;;;;;;8.20;4.30;;;2.90;99.90;;;;;;4979470;29;20542;-44
2023/01/18 05:03:11;;;;;;;7.00;4.30;;;2.90;99.90;;;;;;4979109;29;20534;-40
2023/01/18 05:05:38;;;;;;;5.20;3.97;;;2.90;99.90;;;;;;4968972;29;20452;-43
2023/01/18 05:08:05;;;;;;;4.80;3.07;;;2.90;99.90;;;;;;4978871;29;20471;-39
2023/01/18 05:10:34;;;;;;;5.43;3.80;;;2.90;99.90;;;;;;4979992;29;20444;-46
2023/01/18 05:13:00;;;;;;;6.20;4.27;;;3.00;99.90;;;;;;4979223;28;20498;-42
2023/01/18 05:15:27;;;;;;;7.57;3.27;;;3.00;99.90;;;;;;4979288;29;20451;-45
2023/01/18 05:17:54;;;;;;;3.73;3.13;;;3.00;99.90;;;;;;4979112;29;20479;-40
2023/01/18 05:20:21;;;;;;;4.23;2.80;;;3.00;99.90;;;;;;4979799;28;20455;-40
2023/01/18 05:22:48;;;;;;;5.20;3.27;;;2.90;99.90;;;;;;4979671;29;20448;-39
2023/01/18 05:25:15;;;;;;;4.73;2.80;;;3.00;99.90;;;;;;4979710;29;20435;-45
2023/01/18 05:27:43;;;;;;;10.03;3.20;;;3.00;99.90;;;;;;4979588;29;20448;-41
2023/01/18 05:30:11;;;;;;;5.20;2.80;;;3.00;99.90;;;;;;4979301;29;20452;-41
2023/01/18 05:32:38;;;;;;;5.80;3.07;;;3.00;99.90;;;;;;4978713;29;20495;-44
2023/01/18 05:35:06;;;;;;;8.80;3.43;;;3.00;99.90;;;;;;4979033;29;20460;-43
2023/01/18 05:37:32;;;;;;;7.40;3.73;;;3.00;99.90;;;;;;4978583;29;20443;-44
2023/01/18 05:39:59;;;;;;;3.87;2.40;;;3.10;99.90;;;;;;4978657;29;20459;-40
2023/01/18 05:42:26;;;;;;;9.43;2.57;;;3.10;99.90;;;;;;4973574;29;20921;-41
2023/01/18 05:44:54;;;;;;;5.17;3.03;;;3.10;99.90;;;;;;4975069;29;20496;-45
2023/01/18 05:47:21;;;;;;;2.70;2.50;;;3.20;99.90;;;;;;4978710;29;20447;-38
2023/01/18 05:49:48;;;;;;;5.30;3.70;;;3.20;99.90;;;;;;4977971;29;20476;-40
2023/01/18 05:52:15;;;;;;;6.60;2.80;;;3.20;99.90;;;;;;4977984;29;20447;-42
2023/01/18 05:54:42;;;;;;;4.13;2.80;;;3.20;99.90;;;;;;4978639;28;20484;-39
2023/01/18 05:57:09;;;;;;;4.60;2.63;;;3.30;99.90;;;;;;4975280;29;21048;-44
2023/01/18 05:59:36;;;;;;;6.10;3.00;;;3.30;99.90;;;;;;4981993;29;20471;-43
2023/01/18 06:02:05;;;;;;;7.63;3.60;;;3.30;99.90;;;;;;4981310;29;20468;-42
2023/01/18 06:04:32;;;;;;;3.87;2.63;;;3.30;99.90;;;;;;4982666;29;20439;-41
2023/01/18 06:06:58;;;;;;;5.53;2.83;;;3.30;99.90;;;;;;4978082;29;20455;-41
2023/01/18 06:09:25;;;;;;;3.80;2.57;;;3.30;99.90;;;;;;4976802;29;20481;-41
2023/01/18 06:11:52;;;;;;;5.20;2.93;;;3.30;99.90;;;;;;4982121;29;20455;-46
2023/01/18 06:14:19;;;;;;;3.67;2.53;;;3.30;99.90;;;;;;4981577;29;20525;-41
2023/01/18 06:16:46;;;;;;;1.80;1.60;;;3.40;99.90;;;;;;4981900;29;20462;-43
2023/01/18 06:19:14;;;;;;;13.07;2.57;;;3.40;99.90;;;;;;4982239;29;20482;-40
2023/01/18 06:21:41;;;;;;;5.73;3.77;;;3.40;99.90;;;;;;4981773;29;20459;-41
2023/01/18 06:24:08;;;;;;;5.40;3.20;;;3.40;99.90;;;;;;4981957;29;20443;-43
2023/01/18 06:26:35;;;;;;;4.23;2.97;;;3.40;99.90;;;;;;4981812;29;20463;-41
2023/01/18 06:29:02;;;;;;;2.57;2.20;;;3.40;99.90;;;;;;4981554;29;20427;-43
2023/01/18 06:31:28;;;;;;;4.50;2.43;;;3.30;99.90;;;;;;4977604;29;20452;-42
2023/01/18 06:33:55;;;;;;;4.87;3.17;;;3.30;99.90;;;;;;4973350;29;20498;-42
2023/01/18 06:36:24;;;;;;;6.30;2.80;;;3.40;99.90;;;;;;4982123;29;20467;-41
2023/01/18 06:38:50;;;;;;;9.43;2.93;;;3.40;99.90;;;;;;4982330;28;20455;-44
2023/01/18 06:41:17;;;;;;;4.73;2.47;;;3.40;99.90;;;;;;4981873;29;20464;-44
2023/01/18 06:43:44;;;;;;;8.40;3.67;;;3.40;99.90;;;;;;4981397;29;20467;-44
2023/01/18 06:46:11;;;;;;;4.50;2.20;;;3.30;99.90;;;;;;4982045;29;20447;-44
2023/01/18 06:48:38;;;;;;;3.83;2.67;;;3.40;99.90;;;;;;4981719;29;20452;-47
2023/01/18 06:51:05;;;;;;;8.93;3.30;;;3.40;99.90;;;;;;4981219;29;20458;-42
2023/01/18 06:53:33;;;;;;;3.10;2.30;;;3.30;99.90;;;;;;4981347;29;20495;-43
2023/01/18 06:56:01;;;;;;;7.43;3.17;;;3.40;99.90;;;;;;4981734;29;20439;-42
2023/01/18 06:58:31;;;;;;;4.60;2.40;;;3.40;99.90;;;;;;4981295;29;20467;-41
2023/01/18 07:00:59;;;;;;;7.37;3.50;;;3.40;99.90;;;;;;4981463;29;20427;-41
2023/01/18 07:03:27;;;;;;;15.57;2.57;;;3.30;99.90;;;;;;4981505;29;20594;-43
2023/01/18 07:05:58;;;;;;;7.30;3.50;;;3.30;99.90;;;;;;4980928;28;20444;-40
2023/01/18 07:08:26;;;;;;;4.70;2.40;;;3.40;99.90;;;;;;4981569;29;20447;-41
2023/01/18 07:10:57;;;;;;;5.50;2.80;;;3.30;99.90;;;;;;4980947;29;20454;-38
2023/01/18 07:13:24;;;;;;;2.23;2.03;;;3.30;99.90;;;;;;4978414;29;20472;-40
2023/01/18 07:15:57;;;;;;;4.27;3.33;;;3.30;99.90;;;;;;4972381;29;20519;-40
2023/01/18 07:18:24;;;;;;;5.33;3.50;;;3.30;99.90;;;;;;4980822;29;20447;-42
2023/01/18 07:20:57;;;;;;;6.43;2.80;;;3.30;99.90;;;;;;4980438;29;20490;-41
2023/01/18 07:23:24;;;;;;;8.27;2.80;;;3.30;99.90;;;;;;4980680;29;20431;-42
2023/01/18 07:25:59;;;;;;;5.30;2.60;;;3.30;99.90;;;;;;4980612;29;20476;-41
2023/01/18 07:28:26;;;;;;;3.60;2.80;;;3.30;99.90;;;;;;4968636;29;20805;-43
2023/01/18 07:30:53;;;;;;;13.70;3.17;;;3.40;99.90;;;;;;4975363;29;20480;-40
2023/01/18 07:33:20;;;;;;;11.20;4.07;;;3.30;99.90;;;;;;4972631;29;20531;-41
2023/01/18 07:35:47;;;;;;;8.10;4.03;;;3.30;99.90;;;;;;4979883;29;20472;-40
2023/01/18 07:38:14;;;;;;;3.57;3.00;;;3.30;99.90;;;;;;4979895;29;20459;-41
2023/01/18 07:40:40;;;;;;;3.87;3.47;;;3.30;99.90;;;;;;4979624;29;20471;-39
2023/01/18 07:43:09;;;;;;;7.40;3.63;;;3.30;99.90;;;;;;4979845;29;20468;-42
2023/01/18 07:45:36;;;;;;;5.23;3.03;;;3.30;99.90;;;;;;4980524;29;20472;-40
2023/01/18 07:48:03;;;;;;;6.53;3.90;;;3.30;99.90;;;;;;4980623;28;20471;-42
2023/01/18 07:50:32;;;;;;;4.40;2.83;;;3.30;99.90;;;;;;4980300;29;20447;-44
2023/01/18 07:53:03;;;;;;;4.40;3.40;;;3.40;99.90;;;;;;4979924;29;20444;-44
2023/01/18 07:55:31;;;;;;;3.90;2.33;;;3.40;99.90;;;;;;4979981;29;20427;-39
2023/01/18 07:57:57;;;;;;;5.03;3.00;;;3.40;99.90;;;;;;4980054;29;20467;-43
2023/01/18 08:00:26;;;;;;;6.43;3.80;;;3.40;99.90;;;;;;4980159;29;20487;-42
2023/01/18 08:02:54;;;;;;;7.50;2.60;;;3.40;99.90;;;;;;4979985;29;20452;-41
2023/01/18 08:05:23;;;;;;;5.13;3.47;;;3.40;99.90;;;;;;4979692;29;20484;-42
2023/01/18 08:07:52;;;;;;;6.17;3.10;;;3.50;99.90;;;;;;4980086;29;20435;-43
2023/01/18 08:10:19;;;;;;;6.93;3.10;;;3.50;99.90;;;;;;4976543;29;20558;-39
2023/01/18 08:12:46;;;;;;;5.13;2.93;;;3.50;99.90;;;;;;4974417;29;20472;-40
2023/01/18 08:15:13;;;;;;;5.50;2.80;;;3.50;99.90;;;;;;4979297;29;20530;-41
2023/01/18 08:17:42;;;;;;;3.17;2.67;;;3.60;99.90;;;;;;4979065;28;20416;-45
2023/01/18 08:20:10;;;;;;;5.17;2.97;;;3.60;99.90;;;;;;4979954;29;20479;-44
2023/01/18 08:22:37;;;;;;;5.10;2.80;;;3.70;99.90;;;;;;4976866;29;20429;-41
2023/01/18 08:25:05;;;;;;;6.40;2.90;;;3.80;99.90;;;;;;4969724;29;20541;-40
2023/01/18 08:27:32;;;;;;;7.57;2.80;;;3.80;99.90;;;;;;4979494;29;20440;-44
2023/01/18 08:29:59;;;;;;;5.43;2.93;;;3.80;99.90;;;;;;4979610;29;20455;-43
2023/01/18 08:32:26;;;;;;;4.77;2.10;;;3.90;99.90;;;;;;4979507;29;20444;-48
2023/01/18 08:34:55;;;;;;;5.63;2.83;;;3.90;99.90;;;;;;4978978;29;20475;-41
2023/01/18 08:37:22;;;;;;;4.53;3.00;;;3.90;99.90;;;;;;4979608;28;20440;-45
2023/01/18 08:39:49;;;;;;;3.43;2.10;;;4.00;99.90;;;;;;4979758;29;20499;-47
2023/01/18 08:42:16;;;;;;;10.70;2.67;;;3.90;99.90;;;;;;4979880;29;20428;-45
2023/01/18 08:44:43;;;;;;;8.03;3.10;;;3.90;99.90;;;;;;4972998;29;20487;-42
2023/01/18 08:47:10;;;;;;;8.10;3.00;;;3.90;99.90;;;;;;4975219;29;20472;-44
2023/01/18 08:49:36;;;;;;;3.80;2.33;;;4.00;99.90;;;;;;4979284;29;20438;-40
2023/01/18 08:52:05;;;;;;;3.63;2.50;;;4.10;99.90;;;;;;4979036;29;20528;-47
2023/01/18 08:54:32;;;;;;;7.13;2.47;;;4.10;99.90;;;;;;4979224;29;20487;-48
2023/01/18 08:57:00;;;;;;;8.60;4.07;;;4.20;99.90;;;;;;4978947;28;20483;-46
2023/01/18 08:59:26;;;;;;;7.47;3.40;;;4.20;99.90;;;;;;4979195;29;20455;-45
2023/01/18 09:01:53;;;;;;;7.63;2.83;;;4.20;99.90;;;;;;4974597;29;20468;-41
2023/01/18 09:04:21;;;;;;;9.00;2.30;;;4.30;99.90;;;;;;4977340;29;20913;-42
2023/01/18 09:06:50;;;;;;;5.33;2.83;;;4.30;99.90;;;;;;4979453;29;20468;-42
2023/01/18 09:09:18;;;;;;;19.40;3.80;;;4.30;99.90;;;;;;4978663;29;20448;-42
2023/01/18 09:11:45;;;;;;;3.80;2.90;;;4.30;99.90;;;;;;4979214;29;20536;-42
2023/01/18 09:14:12;;;;;;;12.20;4.40;;;4.30;99.90;;;;;;4978872;29;20508;-48
2023/01/18 09:16:39;;;;;;;4.33;2.93;;;4.40;99.90;;;;;;4969468;29;20566;-41
2023/01/18 09:19:06;;;;;;;7.40;2.43;;;4.40;99.90;;;;;;4972542;29;20443;-40
2023/01/18 09:21:33;;;;;;;4.20;2.67;;;4.50;99.90;;;;;;4970481;29;20471;-43
2023/01/18 09:24:00;;;;;;;6.80;3.20;;;4.50;99.90;;;;;;4978518;29;20412;-44
2023/01/18 09:26:35;;;;;;;7.40;2.53;;;4.60;99.90;;;;;;4978393;28;20444;-43
2023/01/18 09:29:02;;;;;;;6.47;2.90;;;4.60;99.90;;;;;;4978770;28;20430;-48
2023/01/18 09:31:29;;;;;;;8.73;3.40;;;4.60;99.90;;;;;;4978069;29;20455;-47
2023/01/18 09:33:57;;;;;;;4.83;3.20;;;4.70;99.90;;;;;;4978221;28;20469;-45
2023/01/18 09:36:25;;;;;;;6.50;3.90;;;4.70;99.90;;;;;;4978802;29;20443;-41
2023/01/18 09:38:52;;;;;;;16.23;3.47;;;4.80;99.90;;;;;;4977678;29;20490;-42
2023/01/18 09:41:27;;;;;;;5.30;3.07;;;4.90;99.90;;;;;;4977393;29;20444;-43
2023/01/18 09:44:09;;;;;;;7.33;4.60;;;5.10;99.90;;;;;;4978236;29;20443;-43
2023/01/18 09:46:39;;;;;;;15.37;4.20;;;5.20;99.90;;;;;;4977862;29;20496;-43
2023/01/18 09:49:12;;;;;;;4.43;2.13;;;5.30;99.90;;;;;;4978242;29;20428;-46
2023/01/18 09:51:50;;;;;;;10.00;3.13;;;5.30;99.90;;;;;;4978238;29;20480;-42
2023/01/18 09:54:28;;;;;;;7.73;2.90;;;5.40;99.90;;;;;;4978417;29;20472;-46
2023/01/18 09:57:00;;;;;;;4.97;3.00;;;5.40;99.90;;;;;;4978829;29;20422;-45
2023/01/18 09:59:33;;;;;;;4.17;3.27;;;5.40;99.90;;;;;;4978563;29;20451;-41
2023/01/18 10:02:02;;;;;;;6.80;3.20;;;5.50;99.90;;;;;;4978858;29;20467;-44
2023/01/18 10:04:35;;;;;;;8.93;4.00;;;5.40;99.90;;;;;;4978870;29;20433;-46
2023/01/18 10:07:05;;;;;;;11.30;3.83;;;5.40;99.90;;;;;;4978567;29;20416;-46
2023/01/18 10:09:36;;;;;;;10.00;4.50;;;5.40;99.90;;;;;;4978456;28;20452;-44
2023/01/18 10:12:12;;;;;;;7.77;3.93;;;5.40;99.90;;;;;;4978598;29;20417;-42
2023/01/18 10:14:47;;;;;;;7.97;3.87;;;5.40;99.90;;;;;;4978705;29;20468;-43
2023/01/18 10:17:17;;;;;;;7.50;2.97;;;5.40;99.90;;;;;;4978131;29;20475;-41
2023/01/18 10:19:45;;;;;;;5.37;3.20;;;5.40;99.90;;;;;;4978302;29;20473;-46
2023/01/18 10:22:20;;;;;;;7.30;3.10;;;5.40;99.90;;;;;;4978286;29;20424;-45
2023/01/18 10:24:54;;;;;;;8.07;3.10;;;5.40;99.90;;;;;;4978612;29;20456;-44
2023/01/18 10:27:48;;;;;;;5.13;3.50;;;5.40;99.90;;;;;;4978389;29;20435;-41
2023/01/18 10:30:28;;;;;;;10.40;3.37;;;5.40;99.90;;;;;;4977685;29;20420;-41
2023/01/18 10:32:58;;;;;;;4.37;3.20;;;5.40;99.90;;;;;;4977512;29;20451;-42
2023/01/18 10:35:30;;;;;;;3.50;2.30;;;5.40;99.90;;;;;;4977971;29;20454;-43
2023/01/18 10:38:01;;;;;;;5.53;3.93;;;5.30;99.90;;;;;;4978385;29;20443;-40
2023/01/18 10:40:28;;;;;;;6.80;4.03;;;5.30;99.90;;;;;;4978180;28;20419;-42
2023/01/18 10:42:59;;;;;;;9.20;3.97;;;5.30;99.90;;;;;;4981936;29;20447;-40
2023/01/18 10:45:30;;;;;;;14.87;3.90;;;5.30;99.90;;;;;;4981949;29;20436;-42
2023/01/18 10:48:06;;;;;;;7.40;3.23;;;6.00;99.90;;;;;;4981792;28;20420;-49
2023/01/18 10:50:35;;;;;;;8.50;3.63;;;6.20;99.90;;;;;;4981223;29;20427;-45
2023/01/18 10:53:23;;;;;;;7.70;3.40;;;6.00;99.90;;;;;;4980859;29;20496;-46
2023/01/18 10:55:54;;;;;;;4.07;3.00;;;5.80;99.90;;;;;;4980707;29;20499;-45
2023/01/18 10:58:27;;;;;;;8.47;3.57;;;5.70;99.90;;;;;;4980926;29;20419;-50
2023/01/18 11:00:56;;;;;;;10.43;4.33;;;5.60;99.90;;;;;;4976590;29;20428;-47
2023/01/18 11:03:25;;;;;;;11.10;4.10;;;5.50;99.90;;;;;;4976501;29;20468;-50
2023/01/18 11:05:52;;;;;;;10.57;4.43;;;5.50;99.90;;;;;;4980758;29;20441;-48
2023/01/18 11:08:24;;;;;;;6.47;3.83;;;5.50;99.90;;;;;;4980774;29;20452;-41
2023/01/18 11:11:02;;;;;;;8.70;4.83;;;5.50;99.90;;;;;;4980924;29;20428;-46
2023/01/18 11:13:33;;;;;;;6.50;3.50;;;5.40;99.90;;;;;;4964750;29;20542;-41
2023/01/18 11:16:14;;;;;;;8.87;4.60;;;5.40;99.90;;;;;;4979991;29;20467;-46
2023/01/18 11:18:59;;;;;;;7.60;3.70;;;5.40;99.90;;;;;;4980477;29;20434;-48
2023/01/18 11:21:30;;;;;;;12.87;4.80;;;5.40;99.90;;;;;;4981078;29;20471;-49
2023/01/18 11:23:57;;;;;;;10.00;3.97;;;5.40;99.90;;;;;;4980814;29;20436;-45
2023/01/18 11:26:27;;;;;;;5.57;4.27;;;5.40;99.90;;;;;;4981139;28;20440;-45
2023/01/18 11:28:59;;;;;;;5.63;3.40;;;5.40;99.90;;;;;;4980782;29;20464;-46
2023/01/18 11:31:30;;;;;;;9.60;4.30;;;5.40;99.90;;;;;;4980617;29;20432;-47
2023/01/18 11:33:59;;;;;;;5.73;3.87;;;5.40;99.90;;;;;;4981113;29;20420;-42
2023/01/18 11:36:40;;;;;;;7.40;4.70;;;5.40;99.90;;;;;;4980645;29;20464;-43
2023/01/18 11:39:24;;;;;;;6.73;3.30;;;5.40;99.90;;;;;;4981343;29;20439;-45
2023/01/18 11:41:52;;;;;;;6.10;3.10;;;5.40;99.90;;;;;;4980432;29;20409;-44
2023/01/18 11:44:22;;;;;;;5.70;3.03;;;5.40;99.90;;;;;;4980472;28;20454;-45
2023/01/18 11:47:02;;;;;;;5.30;3.83;;;5.40;99.90;;;;;;4981090;28;20440;-43
2023/01/18 11:49:41;;;;;;;6.03;4.10;;;5.40;99.90;;;;;;4980477;29;20411;-44
2023/01/18 11:52:16;;;;;;;5.03;4.53;;;5.40;99.90;;;;;;4980786;28;20467;-42
2023/01/18 11:54:48;;;;;;;14.23;3.07;;;5.40;99.90;;;;;;4979947;29;20495;-44
2023/01/18 11:57:14;;;;;;;5.73;3.83;;;5.30;99.90;;;;;;4980437;29;20412;-49
2023/01/18 11:59:44;;;;;;;5.00;3.23;;;5.30;99.90;;;;;;4980090;28;20456;-44
2023/01/18 12:02:38;;;;;;;3.00;2.40;;;5.30;99.90;;;;;;4979948;29;20428;-48
2023/01/18 12:05:33;;;;;;;9.73;4.43;;;5.20;99.90;;;;;;4980051;28;20784;-44
2023/01/18 12:08:12;;;;;;;5.53;3.77;;;5.20;99.90;;;;;;4980388;28;20435;-42
2023/01/18 12:10:58;;;;;;;6.10;2.83;;;5.20;99.90;;;;;;4980329;29;20479;-41
2023/01/18 12:13:35;;;;;;;5.83;2.43;;;5.10;99.90;;;;;;4980244;29;20436;-40
2023/01/18 12:16:12;;;;;;;4.70;2.70;;;5.10;99.90;;;;;;4980023;29;20498;-40
2023/01/18 12:19:18;;;;;;;5.50;3.10;;;5.10;99.90;;;;;;4979870;29;20444;-46
2023/01/18 12:21:56;;;;;;;4.53;3.20;;;5.10;99.90;;;;;;4979700;29;20502;-47
2023/01/18 12:24:48;;;;;;;5.20;3.00;;;5.00;99.90;;;;;;4979405;29;20467;-43
2023/01/18 12:27:25;;;;;;;4.40;3.30;;;5.00;99.90;;;;;;4979541;29;20466;-45
2023/01/18 12:30:08;;;;;;;7.10;2.80;;;5.00;99.90;;;;;;4979240;29;20455;-42
2023/01/18 12:32:53;;;;;;;17.30;3.90;;;5.60;99.90;;;;;;4979155;29;20439;-43
2023/01/18 12:35:46;;;;;;;10.77;3.83;;;5.60;99.90;;;;;;4978925;29;20460;-42
2023/01/18 12:38:17;;;;;;;11.77;4.00;;;5.50;99.90;;;;;;4978203;29;20463;-44
2023/01/18 12:41:15;;;;;;;10.57;5.10;;;5.50;99.90;;;;;;4968109;29;20436;-48
2023/01/18 12:43:55;;;;;;;6.53;3.90;;;5.40;99.90;;;;;;4979058;29;20444;-46
2023/01/18 12:46:28;;;;;;;3.73;3.23;;;5.30;99.90;;;;;;4978548;29;20467;-45
2023/01/18 12:48:59;;;;;;;4.67;2.90;;;5.30;99.90;;;;;;4979067;29;20461;-49
2023/01/18 12:51:31;;;;;;;5.60;2.60;;;5.30;99.90;;;;;;4978882;29;20466;-43
2023/01/18 12:54:02;;;;;;;5.77;2.77;;;5.30;99.90;;;;;;4979211;29;20476;-42
2023/01/18 12:56:32;;;;;;;5.17;2.67;;;5.20;99.90;;;;;;4978841;29;20511;-49
2023/01/18 12:59:05;;;;;;;5.67;3.07;;;5.30;99.90;;;;;;4979307;29;20455;-44
2023/01/18 13:01:38;;;;;;;5.10;3.33;;;5.20;99.90;;;;;;4978866;29;20424;-42
2023/01/18 13:04:14;;;;;;;9.20;3.70;;;5.10;99.90;;;;;;4978348;28;20447;-42
2023/01/18 13:06:44;;;;;;;6.10;3.07;;;5.10;99.90;;;;;;4972112;29;20542;-43
2023/01/18 13:09:15;;;;;;;6.93;3.40;;;5.10;99.90;;;;;;4972903;29;20456;-42
2023/01/18 13:11:43;;;;;;;6.67;4.37;;;5.10;99.90;;;;;;4979075;29;20443;-43
2023/01/18 13:14:19;;;;;;;6.07;3.00;;;5.10;99.90;;;;;;4979252;29;20455;-46
2023/01/18 13:16:52;;;;;;;13.43;3.97;;;5.10;99.90;;;;;;4979237;28;20475;-47
2023/01/18 13:19:22;;;;;;;5.37;3.20;;;5.00;99.90;;;;;;4979006;29;20432;-43
2023/01/18 13:22:01;;;;;;;6.67;2.97;;;5.00;99.90;;;;;;4978912;29;20471;-43
2023/01/18 13:24:47;;;;;;;5.90;3.40;;;5.00;99.90;;;;;;4978749;28;20452;-45
2023/01/18 13:27:16;;;;;;;4.23;3.20;;;5.10;99.90;;;;;;4978759;29;20478;-41
2023/01/18 13:29:44;;;;;;;6.37;3.23;;;5.10;99.90;;;;;;4978983;29;20456;-41
2023/01/18 13:32:31;;;;;;;6.63;3.30;;;5.00;99.90;;;;;;4978474;29;20479;-40
2023/01/18 13:35:04;;;;;;;9.07;2.93;;;5.00;99.90;;;;;;4977719;29;20451;-44
2023/01/18 13:37:46;;;;;;;2.83;2.53;;;5.00;99.90;;;;;;4977474;29;20495;-43
2023/01/18 13:40:25;;;;;;;5.17;2.50;;;5.00;99.90;;;;;;4977805;29;20431;-44
2023/01/18 13:42:52;;;;;;;7.83;3.80;;;4.90;99.90;;;;;;4965388;29;20484;-43
2023/01/18 13:45:21;;;;;;;3.53;2.60;;;4.90;99.90;;;;;;4978424;29;20479;-42